sensor_id;sensor_type;location;lat;lon;timestamp;pressure;altitude;pressure_sealevel;temperature;humidity
13732;BME280;6937;56.096;12.664;2024-03-02T00:00:10;100956.78;;;7.74;100.00
13732;BME280;6937;56.096;12.664;2024-03-02T00:02:45;100961.25;;;7.73;100.00
13732;BME280;6937;56.096;12.664;2024-03-02T00:05:12;100960.31;;;7.74;100.00
13732;BME280;6937;56.096;12.664;2024-03-02T00:07:41;100961.06;;;7.76;100.00
13732;BME280;6937;56.096;12.664;2024-03-02T00:10:09;100964.59;;;7.77;100.00
13732;BME280;6937;56.096;12.664;2024-03-02T00:12:39;100946.94;;;7.76;100.00
13732;BME280;6937;56.096;12.664;2024-03-02T00:15:32;100949.50;;;7.77;100.00
13732;BME280;6937;56.096;12.664;2024-03-02T00:18:03;100944.28;;;7.76;100.00
13732;BME280;6937;56.096;12.664;2024-03-02T00:20:30;100931.81;;;7.76;100.00
13732;BME280;6937;56.096;12.664;2024-03-02T00:23:06;100919.38;;;7.77;100.00
13732;BME280;6937;56.096;12.664;2024-03-02T00:25:43;100926.00;;;7.70;100.00
13732;BME280;6937;56.096;12.664;2024-03-02T00:28:20;100930.56;;;7.68;100.00
13732;BME280;6937;56.096;12.664;2024-03-02T00:31:06;100933.28;;;7.66;100.00
13732;BME280;6937;56.096;12.664;2024-03-02T00:33:47;100934.09;;;7.68;100.00
13732;BME280;6937;56.096;12.664;2024-03-02T00:36:15;100926.09;;;7.68;100.00
13732;BME280;6937;56.096;12.664;2024-03-02T00:38:48;100921.72;;;7.67;100.00
13732;BME280;6937;56.096;12.664;2024-03-02T00:41:31;100904.91;;;7.67;100.00
13732;BME280;6937;56.096;12.664;2024-03-02T00:46:22;100911.34;;;7.63;100.00
13732;BME280;6937;56.096;12.664;2024-03-02T00:48:58;100908.50;;;7.66;100.00
13732;BME280;6937;56.096;12.664;2024-03-02T00:51:26;100902.50;;;7.62;100.00
13732;BME280;6937;56.096;12.664;2024-03-02T00:53:53;100900.69;;;7.63;100.00
13732;BME280;6937;56.096;12.664;2024-03-02T00:56:22;100898.03;;;7.63;100.00
13732;BME280;6937;56.096;12.664;2024-03-02T00:58:47;100902.50;;;7.62;100.00
13732;BME280;6937;56.096;12.664;2024-03-02T01:01:13;100907.81;;;7.62;100.00
13732;BME280;6937;56.096;12.664;2024-03-02T01:03:39;100908.75;;;7.61;100.00
13732;BME280;6937;56.096;12.664;2024-03-02T01:06:05;100892.91;;;7.60;100.00
13732;BME280;6937;56.096;12.664;2024-03-02T01:08:30;100898.22;;;7.60;100.00
13732;BME280;6937;56.096;12.664;2024-03-02T01:10:55;100891.44;;;7.54;100.00
13732;BME280;6937;56.096;12.664;2024-03-02T01:13:22;100890.00;;;7.49;100.00
13732;BME280;6937;56.096;12.664;2024-03-02T01:15:48;100887.59;;;7.44;100.00
13732;BME280;6937;56.096;12.664;2024-03-02T01:18:14;100894.13;;;7.39;100.00
13732;BME280;6937;56.096;12.664;2024-03-02T01:20:39;100881.25;;;7.31;100.00
13732;BME280;6937;56.096;12.664;2024-03-02T01:23:05;100895.59;;;7.28;100.00
13732;BME280;6937;56.096;12.664;2024-03-02T01:25:30;100893.19;;;7.24;100.00
13732;BME280;6937;56.096;12.664;2024-03-02T01:27:55;100884.81;;;7.16;100.00
13732;BME280;6937;56.096;12.664;2024-03-02T01:30:21;100885.13;;;7.10;100.00
13732;BME280;6937;56.096;12.664;2024-03-02T01:32:46;100885.50;;;7.04;100.00
13732;BME280;6937;56.096;12.664;2024-03-02T01:35:12;100889.34;;;6.98;100.00
13732;BME280;6937;56.096;12.664;2024-03-02T01:37:37;100879.13;;;6.91;100.00
13732;BME280;6937;56.096;12.664;2024-03-02T01:40:03;100870.72;;;6.82;100.00
13732;BME280;6937;56.096;12.664;2024-03-02T01:42:35;100865.75;;;6.76;100.00
13732;BME280;6937;56.096;12.664;2024-03-02T01:45:01;100862.34;;;6.74;100.00
13732;BME280;6937;56.096;12.664;2024-03-02T01:47:27;100854.81;;;6.67;100.00
13732;BME280;6937;56.096;12.664;2024-03-02T01:49:52;100849.81;;;6.61;100.00
13732;BME280;6937;56.096;12.664;2024-03-02T01:52:18;100850.72;;;6.60;100.00
13732;BME280;6937;56.096;12.664;2024-03-02T01:54:43;100850.16;;;6.55;100.00
13732;BME280;6937;56.096;12.664;2024-03-02T01:57:09;100837.13;;;6.50;100.00
13732;BME280;6937;56.096;12.664;2024-03-02T01:59:35;100837.34;;;6.46;100.00
13732;BME280;6937;56.096;12.664;2024-03-02T02:02:00;100837.28;;;6.47;100.00
13732;BME280;6937;56.096;12.664;2024-03-02T02:04:26;100832.06;;;6.46;100.00
13732;BME280;6937;56.096;12.664;2024-03-02T02:06:53;100818.09;;;6.42;100.00
13732;BME280;6937;56.096;12.664;2024-03-02T02:09:19;100832.91;;;6.46;100.00
13732;BME280;6937;56.096;12.664;2024-03-02T02:11:44;100823.22;;;6.45;100.00
13732;BME280;6937;56.096;12.664;2024-03-02T02:14:10;100819.03;;;6.41;100.00
13732;BME280;6937;56.096;12.664;2024-03-02T02:16:36;100810.91;;;6.44;100.00
13732;BME280;6937;56.096;12.664;2024-03-02T02:19:02;100808.25;;;6.44;100.00
13732;BME280;6937;56.096;12.664;2024-03-02T02:21:28;100811.78;;;6.45;100.00
13732;BME280;6937;56.096;12.664;2024-03-02T02:23:53;100811.69;;;6.46;100.00
13732;BME280;6937;56.096;12.664;2024-03-02T02:26:19;100812.53;;;6.47;100.00
13732;BME280;6937;56.096;12.664;2024-03-02T02:28:44;100804.56;;;6.47;100.00
13732;BME280;6937;56.096;12.664;2024-03-02T02:31:15;100807.22;;;6.47;100.00
13732;BME280;6937;56.096;12.664;2024-03-02T02:33:40;100806.47;;;6.45;100.00
13732;BME280;6937;56.096;12.664;2024-03-02T02:36:06;100806.38;;;6.46;100.00
13732;BME280;6937;56.096;12.664;2024-03-02T02:38:37;100809.88;;;6.47;100.00
13732;BME280;6937;56.096;12.664;2024-03-02T02:41:04;100807.28;;;6.45;100.00
13732;BME280;6937;56.096;12.664;2024-03-02T02:43:29;100813.47;;;6.46;100.00
13732;BME280;6937;56.096;12.664;2024-03-02T02:45:54;100804.63;;;6.45;100.00
13732;BME280;6937;56.096;12.664;2024-03-02T02:48:20;100802.00;;;6.45;100.00
13732;BME280;6937;56.096;12.664;2024-03-02T02:50:45;100792.22;;;6.46;100.00
13732;BME280;6937;56.096;12.664;2024-03-02T02:53:11;100787.88;;;6.45;100.00
13732;BME280;6937;56.096;12.664;2024-03-02T02:55:36;100791.22;;;6.48;100.00
13732;BME280;6937;56.096;12.664;2024-03-02T02:58:05;100796.53;;;6.48;100.00
13732;BME280;6937;56.096;12.664;2024-03-02T03:00:31;100795.56;;;6.49;100.00
13732;BME280;6937;56.096;12.664;2024-03-02T03:02:56;100788.66;;;6.47;100.00
13732;BME280;6937;56.096;12.664;2024-03-02T03:05:22;100787.72;;;6.48;100.00
13732;BME280;6937;56.096;12.664;2024-03-02T03:07:47;100784.94;;;6.49;100.00
13732;BME280;6937;56.096;12.664;2024-03-02T03:10:16;100785.63;;;6.53;100.00
13732;BME280;6937;56.096;12.664;2024-03-02T03:12:42;100783.16;;;6.50;100.00
13732;BME280;6937;56.096;12.664;2024-03-02T03:15:09;100789.31;;;6.50;100.00
13732;BME280;6937;56.096;12.664;2024-03-02T03:17:35;100778.97;;;6.46;100.00
13732;BME280;6937;56.096;12.664;2024-03-02T03:20:02;100782.28;;;6.49;100.00
13732;BME280;6937;56.096;12.664;2024-03-02T03:22:29;100784.19;;;6.47;100.00
13732;BME280;6937;56.096;12.664;2024-03-02T03:24:54;100788.56;;;6.48;100.00
13732;BME280;6937;56.096;12.664;2024-03-02T03:27:20;100778.19;;;6.44;100.00
13732;BME280;6937;56.096;12.664;2024-03-02T03:29:45;100785.38;;;6.42;100.00
13732;BME280;6937;56.096;12.664;2024-03-02T03:32:10;100782.13;;;6.37;100.00
13732;BME280;6937;56.096;12.664;2024-03-02T03:34:36;100776.91;;;6.35;100.00
13732;BME280;6937;56.096;12.664;2024-03-02T03:37:02;100773.63;;;6.30;100.00
13732;BME280;6937;56.096;12.664;2024-03-02T03:39:27;100776.38;;;6.28;100.00
13732;BME280;6937;56.096;12.664;2024-03-02T03:41:53;100780.75;;;6.29;100.00
13732;BME280;6937;56.096;12.664;2024-03-02T03:44:19;100769.44;;;6.26;100.00
13732;BME280;6937;56.096;12.664;2024-03-02T03:46:44;100767.72;;;6.25;100.00
13732;BME280;6937;56.096;12.664;2024-03-02T03:49:10;100774.66;;;6.27;100.00
13732;BME280;6937;56.096;12.664;2024-03-02T03:51:35;100766.00;;;6.24;100.00
13732;BME280;6937;56.096;12.664;2024-03-02T03:54:01;100772.94;;;6.26;100.00
13732;BME280;6937;56.096;12.664;2024-03-02T03:56:26;100752.56;;;6.27;100.00
13732;BME280;6937;56.096;12.664;2024-03-02T03:58:52;100763.19;;;6.27;100.00
13732;BME280;6937;56.096;12.664;2024-03-02T04:01:17;100753.53;;;6.26;100.00
13732;BME280;6937;56.096;12.664;2024-03-02T04:03:43;100755.22;;;6.27;100.00
13732;BME280;6937;56.096;12.664;2024-03-02T04:06:08;100753.44;;;6.27;100.00
13732;BME280;6937;56.096;12.664;2024-03-02T04:08:33;100759.44;;;6.31;100.00
13732;BME280;6937;56.096;12.664;2024-03-02T04:10:59;100743.75;;;6.26;100.00
13732;BME280;6937;56.096;12.664;2024-03-02T04:13:24;100754.13;;;6.31;100.00
13732;BME280;6937;56.096;12.664;2024-03-02T04:15:50;100751.56;;;6.29;100.00
13732;BME280;6937;56.096;12.664;2024-03-02T04:18:15;100749.75;;;6.30;100.00
13732;BME280;6937;56.096;12.664;2024-03-02T04:20:41;100751.56;;;6.29;100.00
13732;BME280;6937;56.096;12.664;2024-03-02T04:23:07;100759.44;;;6.31;100.00
13732;BME280;6937;56.096;12.664;2024-03-02T04:25:33;100751.56;;;6.29;100.00
13732;BME280;6937;56.096;12.664;2024-03-02T04:27:58;100761.06;;;6.34;100.00
13732;BME280;6937;56.096;12.664;2024-03-02T04:30:23;100766.28;;;6.35;100.00
13732;BME280;6937;56.096;12.664;2024-03-02T04:32:50;100765.41;;;6.35;100.00
13732;BME280;6937;56.096;12.664;2024-03-02T04:35:16;100760.03;;;6.36;100.00
13732;BME280;6937;56.096;12.664;2024-03-02T04:37:41;100765.09;;;6.41;100.00
13732;BME280;6937;56.096;12.664;2024-03-02T04:40:07;100767.34;;;6.48;100.00
13732;BME280;6937;56.096;12.664;2024-03-02T04:42:35;100762.59;;;6.53;100.00
13732;BME280;6937;56.096;12.664;2024-03-02T04:45:01;100767.59;;;6.59;100.00
13732;BME280;6937;56.096;12.664;2024-03-02T04:47:26;100770.06;;;6.62;100.00
13732;BME280;6937;56.096;12.664;2024-03-02T04:49:52;100763.53;;;6.68;100.00
13732;BME280;6937;56.096;12.664;2024-03-02T04:52:17;100768.78;;;6.69;100.00
13732;BME280;6937;56.096;12.664;2024-03-02T04:54:43;100771.06;;;6.75;100.00
13732;BME280;6937;56.096;12.664;2024-03-02T04:57:27;100774.09;;;6.85;100.00
13732;BME280;6937;56.096;12.664;2024-03-02T04:59:52;100782.47;;;6.93;100.00
13732;BME280;6937;56.096;12.664;2024-03-02T05:02:18;100778.41;;;7.02;100.00
13732;BME280;6937;56.096;12.664;2024-03-02T05:04:43;100779.78;;;7.09;100.00
13732;BME280;6937;56.096;12.664;2024-03-02T05:07:08;100776.84;;;7.13;100.00
13732;BME280;6937;56.096;12.664;2024-03-02T05:09:34;100777.28;;;7.21;100.00
13732;BME280;6937;56.096;12.664;2024-03-02T05:11:59;100781.41;;;7.27;100.00
13732;BME280;6937;56.096;12.664;2024-03-02T05:14:57;100781.88;;;7.34;100.00
13732;BME280;6937;56.096;12.664;2024-03-02T05:17:22;100778.97;;;7.38;100.00
13732;BME280;6937;56.096;12.664;2024-03-02T05:19:47;100785.50;;;7.47;100.00
13732;BME280;6937;56.096;12.664;2024-03-02T05:22:13;100784.31;;;7.52;100.00
13732;BME280;6937;56.096;12.664;2024-03-02T05:24:38;100779.00;;;7.52;100.00
13732;BME280;6937;56.096;12.664;2024-03-02T05:27:04;100781.28;;;7.58;100.00
13732;BME280;6937;56.096;12.664;2024-03-02T05:29:29;100787.25;;;7.62;100.00
13732;BME280;6937;56.096;12.664;2024-03-02T05:31:55;100788.78;;;7.66;100.00
13732;BME280;6937;56.096;12.664;2024-03-02T05:34:20;100795.91;;;7.65;100.00
13732;BME280;6937;56.096;12.664;2024-03-02T05:36:45;100791.38;;;7.67;100.00
13732;BME280;6937;56.096;12.664;2024-03-02T05:39:11;100774.75;;;7.64;100.00
13732;BME280;6937;56.096;12.664;2024-03-02T05:41:36;100789.56;;;7.68;100.00
13732;BME280;6937;56.096;12.664;2024-03-02T05:44:03;100779.81;;;7.68;100.00
13732;BME280;6937;56.096;12.664;2024-03-02T05:46:29;100794.78;;;7.69;100.00
13732;BME280;6937;56.096;12.664;2024-03-02T05:48:54;100793.00;;;7.70;100.00
13732;BME280;6937;56.096;12.664;2024-03-02T05:51:19;100795.56;;;7.71;100.00
13732;BME280;6937;56.096;12.664;2024-03-02T05:53:45;100798.31;;;7.70;100.00
13732;BME280;6937;56.096;12.664;2024-03-02T05:56:10;100798.78;;;7.76;100.00
13732;BME280;6937;56.096;12.664;2024-03-02T05:58:37;100799.75;;;7.75;100.00
13732;BME280;6937;56.096;12.664;2024-03-02T06:01:23;100797.09;;;7.75;100.00
13732;BME280;6937;56.096;12.664;2024-03-02T06:03:56;100797.00;;;7.77;100.00
13732;BME280;6937;56.096;12.664;2024-03-02T06:06:22;100795.31;;;7.76;100.00
13732;BME280;6937;56.096;12.664;2024-03-02T06:08:48;100795.97;;;7.80;100.00
13732;BME280;6937;56.096;12.664;2024-03-02T06:11:13;100797.00;;;7.77;100.00
13732;BME280;6937;56.096;12.664;2024-03-02T06:13:38;100798.63;;;7.80;100.00
13732;BME280;6937;56.096;12.664;2024-03-02T06:16:04;100802.97;;;7.81;100.00
13732;BME280;6937;56.096;12.664;2024-03-02T06:18:29;100802.91;;;7.82;100.00
13732;BME280;6937;56.096;12.664;2024-03-02T06:20:55;100800.25;;;7.82;100.00
13732;BME280;6937;56.096;12.664;2024-03-02T06:23:20;100802.03;;;7.82;100.00
13732;BME280;6937;56.096;12.664;2024-03-02T06:25:46;100801.97;;;7.83;100.00
13732;BME280;6937;56.096;12.664;2024-03-02T06:28:11;100802.03;;;7.82;100.00
13732;BME280;6937;56.096;12.664;2024-03-02T06:30:36;100806.31;;;7.84;100.00
13732;BME280;6937;56.096;12.664;2024-03-02T06:33:02;100813.16;;;7.88;100.00
13732;BME280;6937;56.096;12.664;2024-03-02T06:35:29;100813.09;;;7.90;100.00
13732;BME280;6937;56.096;12.664;2024-03-02T06:37:54;100814.88;;;7.89;100.00
13732;BME280;6937;56.096;12.664;2024-03-02T06:40:19;100812.97;;;7.91;100.00
13732;BME280;6937;56.096;12.664;2024-03-02T06:42:46;100810.16;;;7.94;100.00
13732;BME280;6937;56.096;12.664;2024-03-02T06:45:11;100812.88;;;7.93;100.00
13732;BME280;6937;56.096;12.664;2024-03-02T06:47:37;100821.66;;;7.95;100.00
13732;BME280;6937;56.096;12.664;2024-03-02T06:50:02;100812.50;;;7.99;100.00
13732;BME280;6937;56.096;12.664;2024-03-02T06:52:28;100822.13;;;8.01;100.00
13732;BME280;6937;56.096;12.664;2024-03-02T06:54:53;100808.81;;;8.01;100.00
13732;BME280;6937;56.096;12.664;2024-03-02T06:57:19;100799.97;;;8.01;100.00
13732;BME280;6937;56.096;12.664;2024-03-02T06:59:46;100807.69;;;8.05;100.00
13732;BME280;6937;56.096;12.664;2024-03-02T07:02:11;100803.31;;;8.04;100.00
13732;BME280;6937;56.096;12.664;2024-03-02T07:04:37;100812.03;;;8.06;100.00
13732;BME280;6937;56.096;12.664;2024-03-02T07:07:03;100808.56;;;8.06;100.00
13732;BME280;6937;56.096;12.664;2024-03-02T07:09:28;100805.88;;;8.06;100.00
13732;BME280;6937;56.096;12.664;2024-03-02T07:11:53;100806.63;;;8.08;100.00
13732;BME280;6937;56.096;12.664;2024-03-02T07:14:19;100810.16;;;8.08;100.00
13732;BME280;6937;56.096;12.664;2024-03-02T07:16:44;100817.94;;;8.11;100.00
13732;BME280;6937;56.096;12.664;2024-03-02T07:19:10;100811.75;;;8.11;100.00
13732;BME280;6937;56.096;12.664;2024-03-02T07:21:35;100807.97;;;8.15;100.00
13732;BME280;6937;56.096;12.664;2024-03-02T07:24:00;100818.63;;;8.15;100.00
13732;BME280;6937;56.096;12.664;2024-03-02T07:26:30;100814.91;;;8.17;100.00
13732;BME280;6937;56.096;12.664;2024-03-02T07:28:56;100813.09;;;8.18;100.00
13732;BME280;6937;56.096;12.664;2024-03-02T07:31:22;100827.25;;;8.18;100.00
13732;BME280;6937;56.096;12.664;2024-03-02T07:33:47;100822.72;;;8.20;100.00
13732;BME280;6937;56.096;12.664;2024-03-02T07:36:12;100818.81;;;8.26;100.00
13732;BME280;6937;56.096;12.664;2024-03-02T07:38:38;100819.59;;;8.28;100.00
13732;BME280;6937;56.096;12.664;2024-03-02T07:41:03;100823.88;;;8.31;100.00
13732;BME280;6937;56.096;12.664;2024-03-02T07:43:30;100824.56;;;8.34;100.00
13732;BME280;6937;56.096;12.664;2024-03-02T07:45:56;100829.69;;;8.37;100.00
13732;BME280;6937;56.096;12.664;2024-03-02T07:48:22;100822.75;;;8.35;100.00
13732;BME280;6937;56.096;12.664;2024-03-02T07:50:47;100827.47;;;8.44;100.00
13732;BME280;6937;56.096;12.664;2024-03-02T07:53:13;100837.19;;;8.45;100.00
13732;BME280;6937;56.096;12.664;2024-03-02T07:55:39;100833.59;;;8.46;100.00
13732;BME280;6937;56.096;12.664;2024-03-02T07:58:06;100833.47;;;8.47;100.00
13732;BME280;6937;56.096;12.664;2024-03-02T08:00:32;100829.00;;;8.48;100.00
13732;BME280;6937;56.096;12.664;2024-03-02T08:02:57;100833.31;;;8.50;100.00
13732;BME280;6937;56.096;12.664;2024-03-02T08:05:23;100834.06;;;8.52;100.00
13732;BME280;6937;56.096;12.664;2024-03-02T08:07:48;100832.91;;;8.56;100.00
13732;BME280;6937;56.096;12.664;2024-03-02T08:10:18;100838.03;;;8.59;100.00
13732;BME280;6937;56.096;12.664;2024-03-02T08:12:44;100828.44;;;8.57;100.00
13732;BME280;6937;56.096;12.664;2024-03-02T08:15:09;100833.78;;;8.57;100.00
13732;BME280;6937;56.096;12.664;2024-03-02T08:17:35;100837.38;;;8.56;100.00
13732;BME280;6937;56.096;12.664;2024-03-02T08:20:00;100837.19;;;8.59;100.00
13732;BME280;6937;56.096;12.664;2024-03-02T08:22:25;100838.69;;;8.63;100.00
13732;BME280;6937;56.096;12.664;2024-03-02T08:24:51;100834.16;;;8.65;100.00
13732;BME280;6937;56.096;12.664;2024-03-02T08:27:17;100837.56;;;8.67;100.00
13732;BME280;6937;56.096;12.664;2024-03-02T08:29:42;100834.88;;;8.67;100.00
13732;BME280;6937;56.096;12.664;2024-03-02T08:32:08;100840.13;;;8.68;100.00
13732;BME280;6937;56.096;12.664;2024-03-02T08:34:33;100839.28;;;8.68;100.00
13732;BME280;6937;56.096;12.664;2024-03-02T08:37:01;100836.53;;;8.69;100.00
13732;BME280;6937;56.096;12.664;2024-03-02T08:39:27;100840.78;;;8.72;100.00
13732;BME280;6937;56.096;12.664;2024-03-02T08:41:52;100843.47;;;8.72;100.00
13732;BME280;6937;56.096;12.664;2024-03-02T08:44:18;100846.88;;;8.74;100.00
13732;BME280;6937;56.096;12.664;2024-03-02T08:46:44;100847.66;;;8.76;100.00
13732;BME280;6937;56.096;12.664;2024-03-02T08:49:09;100845.19;;;8.73;100.00
13732;BME280;6937;56.096;12.664;2024-03-02T08:51:35;100855.63;;;8.76;100.00
13732;BME280;6937;56.096;12.664;2024-03-02T08:54:00;100846.69;;;8.77;100.00
13732;BME280;6937;56.096;12.664;2024-03-02T08:56:26;100853.50;;;8.81;100.00
13732;BME280;6937;56.096;12.664;2024-03-02T08:58:51;100853.72;;;8.78;100.00
13732;BME280;6937;56.096;12.664;2024-03-02T09:01:18;100847.44;;;8.79;100.00
13732;BME280;6937;56.096;12.664;2024-03-02T09:03:44;100859.72;;;8.82;100.00
13732;BME280;6937;56.096;12.664;2024-03-02T09:06:10;100850.84;;;8.81;100.00
13732;BME280;6937;56.096;12.664;2024-03-02T09:08:36;100861.72;;;8.78;100.00
13732;BME280;6937;56.096;12.664;2024-03-02T09:11:02;100854.56;;;8.79;100.00
13732;BME280;6937;56.096;12.664;2024-03-02T09:13:28;100857.25;;;8.79;100.00
13732;BME280;6937;56.096;12.664;2024-03-02T09:15:54;100856.38;;;8.78;100.00
13732;BME280;6937;56.096;12.664;2024-03-02T09:18:19;100857.25;;;8.79;100.00
13732;BME280;6937;56.096;12.664;2024-03-02T09:20:45;100857.91;;;8.82;100.00
13732;BME280;6937;56.096;12.664;2024-03-02T09:23:11;100864.00;;;8.84;100.00
13732;BME280;6937;56.096;12.664;2024-03-02T09:25:36;100858.69;;;8.84;100.00
13732;BME280;6937;56.096;12.664;2024-03-02T09:28:02;100863.16;;;8.84;100.00
13732;BME280;6937;56.096;12.664;2024-03-02T09:30:28;100860.47;;;8.84;100.00
13732;BME280;6937;56.096;12.664;2024-03-02T09:32:53;100865.69;;;8.85;100.00
13732;BME280;6937;56.096;12.664;2024-03-02T09:35:19;100870.09;;;8.86;100.00
13732;BME280;6937;56.096;12.664;2024-03-02T09:37:45;100866.47;;;8.87;100.00
13732;BME280;6937;56.096;12.664;2024-03-02T09:40:10;100859.34;;;8.88;100.00
13732;BME280;6937;56.096;12.664;2024-03-02T09:42:37;100867.22;;;8.89;100.00
13732;BME280;6937;56.096;12.664;2024-03-02T09:45:03;100872.38;;;8.92;100.00
13732;BME280;6937;56.096;12.664;2024-03-02T09:47:28;100870.66;;;8.91;100.00
13732;BME280;6937;56.096;12.664;2024-03-02T09:49:54;100885.50;;;8.95;100.00
13732;BME280;6937;56.096;12.664;2024-03-02T09:52:22;100875.78;;;8.94;100.00
13732;BME280;6937;56.096;12.664;2024-03-02T09:54:49;100872.38;;;8.92;100.00
13732;BME280;6937;56.096;12.664;2024-03-02T09:57:15;100877.59;;;8.94;100.00
13732;BME280;6937;56.096;12.664;2024-03-02T09:59:40;100874.19;;;8.92;100.00
13732;BME280;6937;56.096;12.664;2024-03-02T10:02:06;100879.31;;;8.95;100.00
13732;BME280;6937;56.096;12.664;2024-03-02T10:04:34;100880.16;;;8.95;100.00
13732;BME280;6937;56.096;12.664;2024-03-02T10:07:09;100881.78;;;8.98;100.00
13732;BME280;6937;56.096;12.664;2024-03-02T10:09:36;100883.69;;;8.96;100.00
13732;BME280;6937;56.096;12.664;2024-03-02T10:12:05;100882.63;;;8.98;100.00
13732;BME280;6937;56.096;12.664;2024-03-02T10:14:31;100884.34;;;8.99;100.00
13732;BME280;6937;56.096;12.664;2024-03-02T10:17:02;100885.97;;;9.02;100.00
13732;BME280;6937;56.096;12.664;2024-03-02T10:19:28;100893.88;;;9.03;100.00
13732;BME280;6937;56.096;12.664;2024-03-02T10:21:58;100887.47;;;9.06;100.00
13732;BME280;6937;56.096;12.664;2024-03-02T10:24:24;100894.41;;;9.08;100.00
13732;BME280;6937;56.096;12.664;2024-03-02T10:26:51;100897.09;;;9.08;100.00
13732;BME280;6937;56.096;12.664;2024-03-02T10:29:16;100896.34;;;9.06;100.00
13732;BME280;6937;56.096;12.664;2024-03-02T10:31:43;100895.28;;;9.09;100.00
13732;BME280;6937;56.096;12.664;2024-03-02T10:34:10;100900.69;;;9.07;100.00
13732;BME280;6937;56.096;12.664;2024-03-02T10:36:37;100895.34;;;9.07;100.00
13732;BME280;6937;56.096;12.664;2024-03-02T10:39:06;100899.66;;;9.10;100.00
13732;BME280;6937;56.096;12.664;2024-03-02T10:41:36;100893.38;;;9.11;100.00
13732;BME280;6937;56.096;12.664;2024-03-02T10:44:04;100893.25;;;9.12;100.00
13732;BME280;6937;56.096;12.664;2024-03-02T10:46:31;100887.94;;;9.12;100.00
13732;BME280;6937;56.096;12.664;2024-03-02T10:48:58;100896.03;;;9.11;100.00
13732;BME280;6937;56.096;12.664;2024-03-02T10:51:28;100889.75;;;9.12;100.00
13732;BME280;6937;56.096;12.664;2024-03-02T10:53:57;100894.03;;;9.14;100.00
13732;BME280;6937;56.096;12.664;2024-03-02T10:56:30;100899.16;;;9.17;100.00
13732;BME280;6937;56.096;12.664;2024-03-02T10:59:06;100898.97;;;9.20;100.00
13732;BME280;6937;56.096;12.664;2024-03-02T11:01:38;100890.88;;;9.22;100.00
13732;BME280;6937;56.096;12.664;2024-03-02T11:04:04;100899.53;;;9.26;100.00
13732;BME280;6937;56.096;12.664;2024-03-02T11:06:34;100892.19;;;9.29;100.00
13732;BME280;6937;56.096;12.664;2024-03-02T11:09:06;100889.41;;;9.31;100.00
13732;BME280;6937;56.096;12.664;2024-03-02T11:11:36;100891.13;;;9.32;100.00
13732;BME280;6937;56.096;12.664;2024-03-02T11:14:04;100894.75;;;9.31;100.00
13732;BME280;6937;56.096;12.664;2024-03-02T11:16:37;100891.31;;;9.29;100.00
13732;BME280;6937;56.096;12.664;2024-03-02T11:19:11;100903.50;;;9.33;100.00
13732;BME280;6937;56.096;12.664;2024-03-02T11:21:38;100904.25;;;9.35;100.00
13732;BME280;6937;56.096;12.664;2024-03-02T11:26:49;100899.28;;;9.43;100.00
13732;BME280;6937;56.096;12.664;2024-03-02T11:32:17;100902.03;;;9.41;100.00
13732;BME280;6937;56.096;12.664;2024-03-02T11:34:45;100904.53;;;9.44;100.00
13732;BME280;6937;56.096;12.664;2024-03-02T11:37:19;100914.88;;;9.49;100.00
13732;BME280;6937;56.096;12.664;2024-03-02T11:39:46;100903.47;;;9.47;100.00
13732;BME280;6937;56.096;12.664;2024-03-02T11:42:12;100898.56;;;9.53;100.00
13732;BME280;6937;56.096;12.664;2024-03-02T11:44:50;100898.47;;;9.55;100.00
13732;BME280;6937;56.096;12.664;2024-03-02T11:47:16;100902.00;;;9.55;100.00
13732;BME280;6937;56.096;12.664;2024-03-02T11:49:50;100907.03;;;9.60;100.00
13732;BME280;6937;56.096;12.664;2024-03-02T11:52:17;100905.22;;;9.60;100.00
13732;BME280;6937;56.096;12.664;2024-03-02T11:54:45;100908.66;;;9.62;100.00
13732;BME280;6937;56.096;12.664;2024-03-02T11:57:21;100906.72;;;9.64;100.00
13732;BME280;6937;56.096;12.664;2024-03-02T11:59:49;100914.53;;;9.67;100.00
13732;BME280;6937;56.096;12.664;2024-03-02T12:02:16;100918.81;;;9.70;100.00
13732;BME280;6937;56.096;12.664;2024-03-02T12:04:43;100930.44;;;9.69;100.00
13732;BME280;6937;56.096;12.664;2024-03-02T12:07:10;100930.22;;;9.72;100.00
13732;BME280;6937;56.096;12.664;2024-03-02T12:09:36;100940.91;;;9.72;100.00
13732;BME280;6937;56.096;12.664;2024-03-02T12:12:09;100936.53;;;9.71;100.00
13732;BME280;6937;56.096;12.664;2024-03-02T12:14:38;100939.41;;;9.68;100.00
13732;BME280;6937;56.096;12.664;2024-03-02T12:17:04;100939.41;;;9.68;100.00
13732;BME280;6937;56.096;12.664;2024-03-02T12:19:31;100935.78;;;9.69;100.00
13732;BME280;6937;56.096;12.664;2024-03-02T12:21:57;100939.97;;;9.73;100.00
13732;BME280;6937;56.096;12.664;2024-03-02T12:24:23;100937.28;;;9.73;100.00
13732;BME280;6937;56.096;12.664;2024-03-02T12:26:50;100940.16;;;9.70;100.00
13732;BME280;6937;56.096;12.664;2024-03-02T12:29:16;100948.81;;;9.74;100.00
13732;BME280;6937;56.096;12.664;2024-03-02T12:31:42;100932.81;;;9.74;100.00
13732;BME280;6937;56.096;12.664;2024-03-02T12:34:12;100923.28;;;9.69;100.00
13732;BME280;6937;56.096;12.664;2024-03-02T12:36:39;100932.91;;;9.72;100.00
13732;BME280;6937;56.096;12.664;2024-03-02T12:39:07;100947.97;;;9.73;100.00
13732;BME280;6937;56.096;12.664;2024-03-02T12:41:36;100944.34;;;9.74;100.00
13732;BME280;6937;56.096;12.664;2024-03-02T12:44:01;100943.69;;;9.70;100.00
13732;BME280;6937;56.096;12.664;2024-03-02T12:46:27;100951.06;;;9.67;100.00
13732;BME280;6937;56.096;12.664;2024-03-02T12:48:52;100943.03;;;9.67;100.00
13732;BME280;6937;56.096;12.664;2024-03-02T12:51:18;100953.50;;;9.70;100.00
13732;BME280;6937;56.096;12.664;2024-03-02T12:53:43;100954.47;;;9.69;100.00
13732;BME280;6937;56.096;12.664;2024-03-02T12:56:09;100949.88;;;9.71;100.00